createdAt,value
2019-06-26T00:00:08.374Z,83.52
2019-06-26T00:05:06.860Z,84.02
2019-06-26T00:10:06.677Z,85.95
2019-06-26T00:15:08.264Z,87.94
2019-06-26T00:20:07.393Z,90.07
2019-06-26T00:25:06.638Z,92.19
2019-06-26T00:29:07.112Z,96.36
2019-06-26T00:34:07.837Z,95.7
2019-06-26T00:39:07.343Z,97.18
2019-06-26T00:44:07.629Z,99.96
2019-06-26T00:49:07.094Z,100
2019-06-26T00:54:07.358Z,100
2019-06-26T00:59:06.340Z,100
2019-06-26T01:04:10.049Z,100
2019-06-26T01:08:08.461Z,100
2019-06-26T01:13:07.910Z,100
2019-06-26T01:18:06.639Z,100
2019-06-26T01:23:06.916Z,100
2019-06-26T01:28:07.174Z,100
2019-06-26T01:33:07.390Z,100
2019-06-26T01:38:06.719Z,100
2019-06-26T01:43:07.357Z,100
2019-06-26T01:47:06.360Z,100
2019-06-26T01:52:06.636Z,100
2019-06-26T01:57:06.920Z,100
2019-06-26T02:02:07.069Z,100
2019-06-26T02:07:07.364Z,100
2019-06-26T02:12:06.825Z,100
2019-06-26T02:17:07.474Z,100
2019-06-26T02:22:06.781Z,100
2019-06-26T02:26:06.827Z,100
2019-06-26T02:31:06.511Z,100
2019-06-26T02:36:06.864Z,100
2019-06-26T02:41:06.450Z,100
2019-06-26T02:46:06.920Z,100
2019-06-26T02:51:07.409Z,100
2019-06-26T02:56:06.333Z,100
2019-06-26T03:00:08.415Z,100
2019-06-26T03:05:07.355Z,100
2019-06-26T03:10:06.997Z,100
2019-06-26T03:15:10.368Z,100
2019-06-26T03:20:07.369Z,100
2019-06-26T03:25:06.664Z,100
2019-06-26T03:30:08.310Z,100
2019-06-26T03:35:07.395Z,100
2019-06-26T03:40:07.307Z,100
2019-06-26T03:45:26.466Z,100
2019-06-26T03:49:06.636Z,0.92
2019-06-26T03:54:07.000Z,1.39
2019-06-26T03:59:07.202Z,1.62
2019-06-26T04:04:06.635Z,0.74
2019-06-26T04:09:07.365Z,100
2019-06-26T04:14:06.721Z,100
2019-06-26T04:19:06.920Z,100
2019-06-26T04:23:07.028Z,100
2019-06-26T04:28:06.891Z,100
2019-06-26T04:33:06.497Z,100
2019-06-26T04:38:06.751Z,100
2019-06-26T04:43:06.430Z,98.53
2019-06-26T04:48:07.821Z,93.7
2019-06-26T04:53:06.998Z,94.53
2019-06-26T04:58:07.211Z,88.22
2019-06-26T05:03:07.067Z,86.94
2019-06-26T05:07:07.238Z,84.12
2019-06-26T05:12:07.064Z,80.67
2019-06-26T05:17:06.323Z,80.14
2019-06-26T05:22:06.842Z,80.56
2019-06-26T05:27:07.014Z,79.9
2019-06-26T05:32:07.307Z,80.5
2019-06-26T05:37:07.606Z,81.33
2019-06-26T05:42:07.609Z,82.89
2019-06-26T05:46:07.412Z,81.67
2019-06-26T05:51:06.654Z,81
2019-06-26T05:56:06.855Z,77.45
2019-06-26T06:01:06.591Z,77.18
2019-06-26T06:06:06.703Z,72.95
2019-06-26T06:11:06.391Z,74.1
2019-06-26T06:16:07.071Z,70.55
2019-06-26T06:21:06.416Z,68.33
2019-06-26T06:25:07.167Z,70.12
2019-06-26T06:30:08.748Z,66.9
2019-06-26T06:35:06.410Z,66.26
2019-06-26T06:40:07.243Z,63.45
2019-06-26T06:45:07.950Z,63.37
2019-06-26T06:50:06.565Z,62.9
2019-06-26T06:55:06.789Z,62.78
2019-06-26T06:59:07.601Z,63.14
2019-06-26T07:04:07.079Z,62.53
2019-06-26T07:09:06.924Z,61.5
2019-06-26T07:14:07.192Z,59.36
2019-06-26T07:19:06.691Z,58.62
2019-06-26T07:24:06.920Z,56.6
2019-06-26T07:29:07.193Z,56.58
2019-06-26T07:34:07.000Z,56.61
2019-06-26T07:38:07.227Z,54.99
2019-06-26T07:43:06.797Z,56.06
2019-06-26T07:48:07.011Z,54.69
2019-06-26T07:53:07.314Z,54.18
2019-06-26T07:58:06.559Z,53.12
2019-06-26T08:03:07.149Z,52.56
2019-06-26T08:08:06.436Z,55.15
2019-06-26T08:13:07.048Z,53.51
2019-06-26T08:17:07.212Z,52.95
2019-06-26T08:22:07.400Z,48.68
2019-06-26T08:27:06.666Z,47.12
2019-06-26T08:32:07.386Z,50.67
2019-06-26T08:37:06.659Z,47.95
2019-06-26T08:42:07.367Z,48.3
2019-06-26T08:47:06.870Z,47.71
2019-06-26T08:51:07.343Z,47.59
2019-06-26T08:56:06.707Z,49.05
2019-06-26T09:01:06.629Z,47.14
2019-06-26T09:06:06.981Z,48.65
2019-06-26T09:11:07.391Z,47.49
2019-06-26T09:16:06.845Z,47.53
2019-06-26T09:21:07.211Z,46.07
2019-06-26T09:25:22.986Z,46.36
2019-06-26T09:30:08.939Z,47.59
2019-06-26T09:35:07.157Z,46.23
2019-06-26T09:40:07.004Z,45.61
2019-06-26T09:45:08.784Z,47.05
2019-06-26T09:50:07.268Z,45.81
2019-06-26T09:55:06.690Z,45.34
2019-06-26T10:00:08.411Z,45.7
2019-06-26T10:04:07.238Z,43.55
2019-06-26T10:09:07.012Z,45.4
2019-06-26T10:14:07.419Z,44.09
2019-06-26T10:19:11.569Z,44.01
2019-06-26T10:24:06.880Z,43.52
2019-06-26T10:29:07.141Z,44.04
2019-06-26T10:34:10.869Z,44.08
2019-06-26T10:39:07.544Z,45.31
2019-06-26T10:44:06.757Z,43.79
2019-06-26T10:48:07.260Z,43.52
2019-06-26T10:53:07.540Z,40.33
2019-06-26T10:58:06.653Z,42.82
2019-06-26T11:03:07.414Z,40.25
2019-06-26T11:08:06.634Z,39.87
2019-06-26T11:13:07.326Z,40.5
2019-06-26T11:18:07.329Z,40.44
2019-06-26T11:22:06.807Z,41.05
2019-06-26T11:28:06.892Z,42.25
2019-06-26T11:32:10.261Z,45.04
2019-06-26T11:37:07.545Z,42.35
2019-06-26T11:42:07.190Z,43.95
2019-06-26T11:47:06.873Z,43.93
2019-06-26T11:52:07.532Z,42.37
2019-06-26T11:57:06.867Z,40.41
2019-06-26T12:02:06.887Z,41.65
2019-06-26T12:07:07.370Z,41.39
2019-06-26T12:11:07.153Z,40.44
2019-06-26T12:16:06.714Z,39.04
2019-06-26T12:21:07.114Z,39.19
2019-06-26T12:26:06.779Z,38.41
2019-06-26T12:31:07.144Z,38.16
2019-06-26T12:36:06.456Z,39.02
2019-06-26T12:41:07.305Z,39.93
2019-06-26T12:46:07.120Z,39.08
2019-06-26T12:51:06.286Z,38.93
2019-06-26T12:55:07.638Z,40.57
2019-06-26T13:00:08.900Z,39.86
2019-06-26T13:05:07.132Z,38.81
2019-06-26T13:10:07.439Z,38.12
2019-06-26T13:15:08.809Z,37.92
2019-06-26T13:20:10.645Z,38.22
2019-06-26T13:25:07.000Z,39.67
2019-06-26T13:30:08.422Z,40.92
2019-06-26T13:34:07.127Z,39.36
2019-06-26T13:39:07.672Z,39.87
2019-06-26T13:44:06.852Z,40.23
2019-06-26T13:49:06.898Z,40.31
2019-06-26T13:54:07.190Z,39.45
2019-06-26T13:59:08.303Z,39.04
2019-06-26T14:04:06.799Z,40.06
2019-06-26T14:09:07.951Z,40.29
2019-06-26T14:13:06.610Z,40.73
2019-06-26T14:18:06.901Z,38.32
2019-06-26T14:23:07.135Z,39.05
2019-06-26T14:28:07.348Z,41.25
2019-06-26T14:33:06.913Z,41.66
2019-06-26T14:38:07.150Z,41.2
2019-06-26T14:43:06.493Z,41.24
2019-06-26T14:47:06.658Z,39.18
2019-06-26T14:52:07.246Z,38.99
2019-06-26T14:57:07.465Z,37.39
2019-06-26T15:02:06.601Z,38.12
2019-06-26T15:07:06.860Z,39.57
2019-06-26T15:12:06.905Z,38.77
2019-06-26T15:17:07.327Z,37.77
2019-06-26T15:22:06.576Z,38.78
2019-06-26T15:26:07.041Z,38.03
2019-06-26T15:31:07.428Z,38.33
2019-06-26T15:36:06.650Z,37.95
2019-06-26T15:41:07.411Z,39.84
2019-06-26T15:46:08.698Z,38.31
2019-06-26T15:51:06.999Z,39.14
2019-06-26T15:56:07.326Z,39.22
2019-06-26T16:00:08.594Z,40.22
2019-06-26T16:05:06.756Z,40.87
2019-06-26T16:10:07.648Z,41.47
2019-06-26T16:15:08.754Z,42.37
2019-06-26T16:20:06.399Z,39.75
2019-06-26T16:25:06.655Z,39.67
2019-06-26T16:30:08.290Z,39.81
2019-06-26T16:35:07.167Z,39.59
2019-06-26T16:39:07.361Z,39.57
2019-06-26T16:44:06.636Z,40.08
2019-06-26T16:49:07.170Z,40.76
2019-06-26T16:54:07.459Z,41.74
2019-06-26T16:59:06.711Z,42.12
2019-06-26T17:04:07.606Z,41.79
2019-06-26T17:08:07.100Z,41.48
2019-06-26T17:13:07.170Z,41.96
2019-06-26T17:18:06.876Z,42.04
2019-06-26T17:23:07.202Z,41.75
2019-06-26T17:28:06.794Z,43.53
2019-06-26T17:33:08.107Z,44.69
2019-06-26T17:38:06.716Z,44.11
2019-06-26T17:43:13.507Z,44.4
2019-06-26T17:48:07.050Z,42.05
2019-06-26T17:53:22.577Z,42.68
2019-06-26T17:57:06.685Z,43.88
2019-06-26T18:02:07.220Z,44.75
2019-06-26T18:07:07.855Z,44.11
2019-06-26T18:12:06.671Z,45.57
2019-06-26T18:17:23.132Z,46.97
2019-06-26T18:22:07.334Z,46.31
2019-06-26T18:27:06.660Z,47.69
2019-06-26T18:31:06.912Z,51.26
2019-06-26T18:36:07.253Z,51.08
2019-06-26T18:41:06.818Z,50.67
2019-06-26T18:46:06.431Z,50.86
2019-06-26T18:51:06.937Z,51.35
2019-06-26T18:56:07.167Z,51.7
2019-06-26T19:01:07.440Z,51.36
2019-06-26T19:05:06.950Z,51.27
2019-06-26T19:10:07.352Z,51.61
2019-06-26T19:15:08.165Z,51.76
2019-06-26T19:20:06.791Z,51.63
2019-06-26T19:25:07.007Z,53.01
2019-06-26T19:30:08.692Z,52.51
2019-06-26T19:39:07.256Z,54.01
2019-06-26T19:44:09.775Z,54.1
2019-06-26T19:49:07.180Z,54.99
2019-06-26T19:54:07.405Z,55.51
2019-06-26T19:59:06.674Z,55.92
2019-06-26T20:04:07.884Z,57.3
2019-06-26T20:09:07.152Z,58.08
2019-06-26T20:14:06.596Z,59.01
2019-06-26T20:19:06.724Z,59.49
2019-06-26T20:23:07.646Z,60.19
2019-06-26T20:28:07.028Z,60.91
2019-06-26T20:33:06.847Z,61.03
2019-06-26T20:38:07.153Z,61.34
2019-06-26T20:43:06.910Z,62.17
2019-06-26T20:48:07.298Z,62.42
2019-06-26T20:53:07.313Z,62.88
2019-06-26T20:58:06.815Z,63.69
2019-06-26T21:02:07.169Z,64.4
2019-06-26T21:07:07.379Z,64.98
2019-06-26T21:12:07.049Z,63.23
2019-06-26T21:17:07.313Z,62.63
2019-06-26T21:22:09.704Z,61.48
2019-06-26T21:27:06.951Z,58.44
2019-06-26T21:32:07.522Z,57.64
2019-06-26T21:37:06.739Z,57.95
2019-06-26T21:42:06.652Z,57.74
2019-06-26T21:46:06.851Z,59.64
2019-06-26T21:51:07.260Z,60.26
2019-06-26T21:56:06.487Z,58.59
2019-06-26T22:01:06.821Z,59.21
2019-06-26T22:06:07.106Z,59.98
2019-06-26T22:11:07.227Z,56.91
2019-06-26T22:16:07.630Z,56.89
2019-06-26T22:21:07.004Z,57.27
2019-06-26T22:26:07.352Z,58.77
2019-06-26T22:30:09.025Z,59.45
2019-06-26T22:35:06.636Z,54.42
2019-06-26T22:40:07.264Z,53.87
2019-06-26T22:45:08.924Z,53.53
2019-06-26T22:50:06.701Z,54.16
2019-06-26T22:55:06.894Z,54.51
2019-06-26T22:59:07.033Z,54.91
2019-06-26T23:04:07.343Z,53.17
2019-06-26T23:09:08.066Z,50.94
2019-06-26T23:14:07.317Z,49.07
2019-06-26T23:19:06.568Z,47.61
2019-06-26T23:24:06.797Z,47.68
2019-06-26T23:29:06.966Z,48.33
2019-06-26T23:34:07.311Z,48.74
2019-06-26T23:38:05.976Z,48.95
2019-06-26T23:43:06.436Z,49.8
2019-06-26T23:48:06.076Z,51.29
2019-06-26T23:53:06.319Z,51.73
2019-06-26T23:58:06.501Z,52.28
